Terminal Aerodrome Forecast
Issued by NWS Melbourne, FL

Home | Current Version | Previous Version | Text Only | Print | Product List | Glossary On
Versions: 1 2 3 4 5 6 7 8 9 10 11 12 13 14 15 16 17 18 19 20 21 22
689
FTUS42 KMLB 212330
TAFMLB
TAF
KMLB 212330Z 2200/2224 12009KT P6SM SCT050 BKN250
     FM220300 13009KT P6SM BKN050 BKN250
     FM220900 13008KT P6SM VCSH BKN035 BKN250
     FM221300 14013G20KT P6SM VCSH SCT020 OVC035
      TEMPO 2213/2215 5SM SHRA BKN020
     FM221500 14013G20KT P6SM VCSH SCT020 OVC035
      TEMPO 2215/2218 3SM SHRA BKN020 OVC030
     FM221800 15012G19KT 4SM -RA BR SCT015 OVC030
      TEMPO 2218/2221 2SM TSRA BKN020CB OVC030
     FM222100 13010KT 5SM -RA BR SCT015 OVC025
      TEMPO 2221/2224 2SM SHRA BKN015 OVC025=

USA.gov is the U.S. government's official web portal to all federal, state and local government web resources and services.